Terminal Aerodrome Forecast
Issued by NWS

Home | Current Version | Previous Version | Graphics & Text | Print | Product List | Glossary On
Versions: 1 2 3 4 5 6 7 8 9 10 11 12 13 14 15 16 17 18 19 20 21 22 23 24
436
FTUS43 KMPX 221120
TAFRWF
TAF
KRWF 221120Z 2212/2312 13010KT P6SM BKN050 WS020/20040KT
     FM221600 18020G30KT P6SM SCT100
     FM230300 17013G20KT P6SM SCT200 WS020/19050KT
     FM230900 20012KT P6SM BKN120=

USA.gov is the U.S. government's official web portal to all federal, state and local government web resources and services.